sensor_id;sensor_type;location;lat;lon;timestamp;P1;durP1;ratioP1;P2;durP2;ratioP2
54575;SDS011;40472;53.486;14.542;2023-08-06T00:00:20;0.82;;;0.70;;
54575;SDS011;40472;53.486;14.542;2023-08-06T00:02:46;1.40;;;0.80;;
54575;SDS011;40472;53.486;14.542;2023-08-06T00:05:13;0.93;;;0.63;;
54575;SDS011;40472;53.486;14.542;2023-08-06T00:07:42;1.42;;;1.20;;
54575;SDS011;40472;53.486;14.542;2023-08-06T00:10:11;2.15;;;0.73;;
54575;SDS011;40472;53.486;14.542;2023-08-06T00:12:37;0.50;;;0.50;;
54575;SDS011;40472;53.486;14.542;2023-08-06T00:15:03;0.88;;;0.55;;
54575;SDS011;40472;53.486;14.542;2023-08-06T00:17:29;2.67;;;0.75;;
54575;SDS011;40472;53.486;14.542;2023-08-06T00:19:55;0.73;;;0.40;;
54575;SDS011;40472;53.486;14.542;2023-08-06T00:22:21;0.90;;;0.60;;
54575;SDS011;40472;53.486;14.542;2023-08-06T00:24:46;0.63;;;0.60;;
54575;SDS011;40472;53.486;14.542;2023-08-06T00:27:12;0.65;;;0.63;;
54575;SDS011;40472;53.486;14.542;2023-08-06T00:29:38;0.98;;;0.77;;
54575;SDS011;40472;53.486;14.542;2023-08-06T00:32:04;1.00;;;0.63;;
54575;SDS011;40472;53.486;14.542;2023-08-06T00:34:30;1.25;;;0.70;;
54575;SDS011;40472;53.486;14.542;2023-08-06T00:36:55;1.40;;;1.05;;
54575;SDS011;40472;53.486;14.542;2023-08-06T00:39:21;0.73;;;0.50;;
54575;SDS011;40472;53.486;14.542;2023-08-06T00:41:47;1.48;;;1.00;;
54575;SDS011;40472;53.486;14.542;2023-08-06T00:44:12;1.48;;;0.80;;
54575;SDS011;40472;53.486;14.542;2023-08-06T00:46:38;0.73;;;0.70;;
54575;SDS011;40472;53.486;14.542;2023-08-06T00:49:04;2.38;;;0.98;;
54575;SDS011;40472;53.486;14.542;2023-08-06T00:51:30;1.42;;;1.00;;
54575;SDS011;40472;53.486;14.542;2023-08-06T00:53:57;1.00;;;0.80;;
54575;SDS011;40472;53.486;14.542;2023-08-06T00:56:23;2.67;;;1.00;;
54575;SDS011;40472;53.486;14.542;2023-08-06T00:58:50;1.33;;;0.93;;
54575;SDS011;40472;53.486;14.542;2023-08-06T01:01:16;1.08;;;0.88;;
54575;SDS011;40472;53.486;14.542;2023-08-06T01:03:41;0.80;;;0.75;;
54575;SDS011;40472;53.486;14.542;2023-08-06T01:06:07;1.80;;;0.75;;
54575;SDS011;40472;53.486;14.542;2023-08-06T01:11:33;2.65;;;0.95;;
54575;SDS011;40472;53.486;14.542;2023-08-06T01:14:21;5.78;;;1.48;;
54575;SDS011;40472;53.486;14.542;2023-08-06T01:16:55;1.15;;;1.00;;
54575;SDS011;40472;53.486;14.542;2023-08-06T01:19:23;1.35;;;0.80;;
54575;SDS011;40472;53.486;14.542;2023-08-06T01:21:49;0.65;;;0.63;;
54575;SDS011;40472;53.486;14.542;2023-08-06T01:24:15;0.65;;;0.47;;
54575;SDS011;40472;53.486;14.542;2023-08-06T01:29:35;1.55;;;0.70;;
54575;SDS011;40472;53.486;14.542;2023-08-06T01:32:10;1.27;;;1.02;;
54575;SDS011;40472;53.486;14.542;2023-08-06T01:34:39;2.30;;;1.05;;
54575;SDS011;40472;53.486;14.542;2023-08-06T01:37:06;0.90;;;0.65;;
54575;SDS011;40472;53.486;14.542;2023-08-06T01:39:35;2.85;;;0.57;;
54575;SDS011;40472;53.486;14.542;2023-08-06T01:42:01;1.55;;;1.05;;
54575;SDS011;40472;53.486;14.542;2023-08-06T01:44:26;1.33;;;0.82;;
54575;SDS011;40472;53.486;14.542;2023-08-06T01:46:52;0.77;;;0.63;;
54575;SDS011;40472;53.486;14.542;2023-08-06T01:49:18;1.38;;;0.65;;
54575;SDS011;40472;53.486;14.542;2023-08-06T01:51:43;1.50;;;0.98;;
54575;SDS011;40472;53.486;14.542;2023-08-06T01:54:09;1.67;;;0.95;;
54575;SDS011;40472;53.486;14.542;2023-08-06T01:56:34;3.30;;;1.05;;
54575;SDS011;40472;53.486;14.542;2023-08-06T01:59:00;1.58;;;1.08;;
54575;SDS011;40472;53.486;14.542;2023-08-06T02:01:26;0.65;;;0.60;;
54575;SDS011;40472;53.486;14.542;2023-08-06T02:03:51;0.95;;;0.80;;
54575;SDS011;40472;53.486;14.542;2023-08-06T02:06:17;5.22;;;0.57;;
54575;SDS011;40472;53.486;14.542;2023-08-06T02:08:42;1.00;;;0.68;;
54575;SDS011;40472;53.486;14.542;2023-08-06T02:11:08;1.27;;;0.73;;
54575;SDS011;40472;53.486;14.542;2023-08-06T02:13:34;0.60;;;0.60;;
54575;SDS011;40472;53.486;14.542;2023-08-06T02:15:59;2.30;;;1.17;;
54575;SDS011;40472;53.486;14.542;2023-08-06T02:18:25;1.35;;;0.77;;
54575;SDS011;40472;53.486;14.542;2023-08-06T02:20:57;1.20;;;0.55;;
54575;SDS011;40472;53.486;14.542;2023-08-06T02:23:23;2.75;;;1.40;;
54575;SDS011;40472;53.486;14.542;2023-08-06T02:25:56;0.98;;;0.60;;
54575;SDS011;40472;53.486;14.542;2023-08-06T02:28:23;4.18;;;0.70;;
54575;SDS011;40472;53.486;14.542;2023-08-06T02:30:51;0.40;;;0.40;;
54575;SDS011;40472;53.486;14.542;2023-08-06T02:33:17;1.85;;;0.80;;
54575;SDS011;40472;53.486;14.542;2023-08-06T02:35:43;0.88;;;0.73;;
54575;SDS011;40472;53.486;14.542;2023-08-06T02:48:14;1.17;;;0.88;;
54575;SDS011;40472;53.486;14.542;2023-08-06T02:50:40;0.80;;;0.75;;
54575;SDS011;40472;53.486;14.542;2023-08-06T02:53:07;2.97;;;1.42;;
54575;SDS011;40472;53.486;14.542;2023-08-06T02:55:33;1.15;;;0.60;;
54575;SDS011;40472;53.486;14.542;2023-08-06T02:58:00;1.85;;;0.73;;
54575;SDS011;40472;53.486;14.542;2023-08-06T03:00:26;0.35;;;0.22;;
54575;SDS011;40472;53.486;14.542;2023-08-06T03:02:51;1.15;;;0.68;;
54575;SDS011;40472;53.486;14.542;2023-08-06T03:05:18;5.97;;;0.50;;
54575;SDS011;40472;53.486;14.542;2023-08-06T03:07:43;4.43;;;1.17;;
54575;SDS011;40472;53.486;14.542;2023-08-06T03:10:09;0.65;;;0.55;;
54575;SDS011;40472;53.486;14.542;2023-08-06T03:12:35;0.95;;;0.60;;
54575;SDS011;40472;53.486;14.542;2023-08-06T03:15:00;1.25;;;0.68;;
54575;SDS011;40472;53.486;14.542;2023-08-06T03:17:26;0.70;;;0.43;;
54575;SDS011;40472;53.486;14.542;2023-08-06T03:19:51;1.25;;;0.98;;
54575;SDS011;40472;53.486;14.542;2023-08-06T03:22:17;0.85;;;0.60;;
54575;SDS011;40472;53.486;14.542;2023-08-06T03:24:43;1.00;;;0.57;;
54575;SDS011;40472;53.486;14.542;2023-08-06T03:27:08;2.13;;;0.60;;
54575;SDS011;40472;53.486;14.542;2023-08-06T03:29:34;1.00;;;0.60;;
54575;SDS011;40472;53.486;14.542;2023-08-06T03:31:59;0.35;;;0.35;;
54575;SDS011;40472;53.486;14.542;2023-08-06T03:34:25;0.88;;;0.50;;
54575;SDS011;40472;53.486;14.542;2023-08-06T03:36:50;0.60;;;0.50;;
54575;SDS011;40472;53.486;14.542;2023-08-06T03:39:16;1.25;;;0.65;;
54575;SDS011;40472;53.486;14.542;2023-08-06T03:41:43;1.10;;;0.40;;
54575;SDS011;40472;53.486;14.542;2023-08-06T03:44:08;0.82;;;0.47;;
54575;SDS011;40472;53.486;14.542;2023-08-06T03:46:34;1.83;;;0.93;;
54575;SDS011;40472;53.486;14.542;2023-08-06T03:49:00;0.65;;;0.35;;
54575;SDS011;40472;53.486;14.542;2023-08-06T03:51:26;0.73;;;0.60;;
54575;SDS011;40472;53.486;14.542;2023-08-06T03:53:51;1.77;;;0.55;;
54575;SDS011;40472;53.486;14.542;2023-08-06T03:56:17;1.13;;;0.70;;
54575;SDS011;40472;53.486;14.542;2023-08-06T03:58:42;1.48;;;0.73;;
54575;SDS011;40472;53.486;14.542;2023-08-06T04:01:08;1.95;;;0.45;;
54575;SDS011;40472;53.486;14.542;2023-08-06T04:03:34;0.82;;;0.57;;
54575;SDS011;40472;53.486;14.542;2023-08-06T04:05:59;2.53;;;0.30;;
54575;SDS011;40472;53.486;14.542;2023-08-06T04:08:26;0.45;;;0.38;;
54575;SDS011;40472;53.486;14.542;2023-08-06T04:10:52;0.47;;;0.47;;
54575;SDS011;40472;53.486;14.542;2023-08-06T04:13:18;0.68;;;0.50;;
54575;SDS011;40472;53.486;14.542;2023-08-06T04:15:44;0.60;;;0.30;;
54575;SDS011;40472;53.486;14.542;2023-08-06T04:18:09;0.65;;;0.57;;
54575;SDS011;40472;53.486;14.542;2023-08-06T04:20:42;0.40;;;0.30;;
54575;SDS011;40472;53.486;14.542;2023-08-06T04:23:08;0.50;;;0.50;;
54575;SDS011;40472;53.486;14.542;2023-08-06T04:25:34;1.00;;;0.50;;
54575;SDS011;40472;53.486;14.542;2023-08-06T04:27:59;1.92;;;0.45;;
54575;SDS011;40472;53.486;14.542;2023-08-06T04:30:25;1.15;;;0.70;;
54575;SDS011;40472;53.486;14.542;2023-08-06T04:32:51;1.00;;;0.63;;
54575;SDS011;40472;53.486;14.542;2023-08-06T04:35:16;1.35;;;0.70;;
54575;SDS011;40472;53.486;14.542;2023-08-06T04:37:42;1.70;;;0.88;;
54575;SDS011;40472;53.486;14.542;2023-08-06T04:40:07;1.95;;;0.70;;
54575;SDS011;40472;53.486;14.542;2023-08-06T04:42:33;0.88;;;0.60;;
54575;SDS011;40472;53.486;14.542;2023-08-06T04:45:00;1.95;;;0.52;;
54575;SDS011;40472;53.486;14.542;2023-08-06T04:47:27;1.50;;;0.75;;
54575;SDS011;40472;53.486;14.542;2023-08-06T04:49:53;1.48;;;0.63;;
54575;SDS011;40472;53.486;14.542;2023-08-06T04:52:18;1.48;;;0.80;;
54575;SDS011;40472;53.486;14.542;2023-08-06T04:54:44;1.52;;;0.60;;
54575;SDS011;40472;53.486;14.542;2023-08-06T04:57:10;1.33;;;0.88;;
54575;SDS011;40472;53.486;14.542;2023-08-06T04:59:35;1.40;;;0.68;;
54575;SDS011;40472;53.486;14.542;2023-08-06T05:02:01;1.10;;;0.77;;
54575;SDS011;40472;53.486;14.542;2023-08-06T05:04:27;1.90;;;0.93;;
54575;SDS011;40472;53.486;14.542;2023-08-06T05:06:53;1.58;;;0.80;;
54575;SDS011;40472;53.486;14.542;2023-08-06T05:09:18;2.28;;;1.42;;
54575;SDS011;40472;53.486;14.542;2023-08-06T05:11:45;1.00;;;0.73;;
54575;SDS011;40472;53.486;14.542;2023-08-06T05:14:11;3.35;;;1.00;;
54575;SDS011;40472;53.486;14.542;2023-08-06T05:16:37;4.75;;;1.35;;
54575;SDS011;40472;53.486;14.542;2023-08-06T05:19:02;3.97;;;1.73;;
54575;SDS011;40472;53.486;14.542;2023-08-06T05:21:28;3.25;;;2.00;;
54575;SDS011;40472;53.486;14.542;2023-08-06T05:23:54;6.15;;;2.30;;
54575;SDS011;40472;53.486;14.542;2023-08-06T05:26:19;8.77;;;2.63;;
54575;SDS011;40472;53.486;14.542;2023-08-06T05:28:45;16.98;;;4.35;;
54575;SDS011;40472;53.486;14.542;2023-08-06T05:31:11;7.15;;;1.88;;
54575;SDS011;40472;53.486;14.542;2023-08-06T05:33:37;9.48;;;2.55;;
54575;SDS011;40472;53.486;14.542;2023-08-06T05:36:03;14.35;;;3.15;;
54575;SDS011;40472;53.486;14.542;2023-08-06T05:38:29;16.17;;;3.35;;
54575;SDS011;40472;53.486;14.542;2023-08-06T05:40:55;12.43;;;3.90;;
54575;SDS011;40472;53.486;14.542;2023-08-06T05:43:21;10.88;;;4.38;;
54575;SDS011;40472;53.486;14.542;2023-08-06T05:45:49;16.90;;;4.50;;
54575;SDS011;40472;53.486;14.542;2023-08-06T05:48:15;6.10;;;2.88;;
54575;SDS011;40472;53.486;14.542;2023-08-06T05:50:41;10.52;;;2.58;;
54575;SDS011;40472;53.486;14.542;2023-08-06T05:53:07;10.45;;;3.97;;
54575;SDS011;40472;53.486;14.542;2023-08-06T05:55:33;8.57;;;3.67;;
54575;SDS011;40472;53.486;14.542;2023-08-06T05:57:59;7.80;;;3.55;;
54575;SDS011;40472;53.486;14.542;2023-08-06T06:00:25;6.80;;;2.83;;
54575;SDS011;40472;53.486;14.542;2023-08-06T06:02:50;11.27;;;3.42;;
54575;SDS011;40472;53.486;14.542;2023-08-06T06:05:16;8.63;;;3.55;;
54575;SDS011;40472;53.486;14.542;2023-08-06T06:07:41;3.13;;;1.67;;
54575;SDS011;40472;53.486;14.542;2023-08-06T06:10:07;1.23;;;0.73;;
54575;SDS011;40472;53.486;14.542;2023-08-06T06:12:33;1.27;;;0.70;;
54575;SDS011;40472;53.486;14.542;2023-08-06T06:14:59;1.23;;;0.82;;
54575;SDS011;40472;53.486;14.542;2023-08-06T06:17:26;1.77;;;1.00;;
54575;SDS011;40472;53.486;14.542;2023-08-06T06:19:54;0.90;;;0.50;;
54575;SDS011;40472;53.486;14.542;2023-08-06T06:22:20;1.45;;;0.70;;
54575;SDS011;40472;53.486;14.542;2023-08-06T06:24:45;1.30;;;0.82;;
54575;SDS011;40472;53.486;14.542;2023-08-06T06:27:11;0.47;;;0.47;;
54575;SDS011;40472;53.486;14.542;2023-08-06T06:29:37;0.63;;;0.55;;
54575;SDS011;40472;53.486;14.542;2023-08-06T06:32:02;0.57;;;0.50;;
54575;SDS011;40472;53.486;14.542;2023-08-06T06:34:28;3.35;;;1.48;;
54575;SDS011;40472;53.486;14.542;2023-08-06T06:36:54;1.30;;;0.63;;
54575;SDS011;40472;53.486;14.542;2023-08-06T06:39:20;0.55;;;0.50;;
54575;SDS011;40472;53.486;14.542;2023-08-06T06:41:46;1.00;;;0.60;;
54575;SDS011;40472;53.486;14.542;2023-08-06T06:44:12;0.63;;;0.50;;
54575;SDS011;40472;53.486;14.542;2023-08-06T06:46:38;1.10;;;0.70;;
54575;SDS011;40472;53.486;14.542;2023-08-06T06:49:04;1.55;;;0.60;;
54575;SDS011;40472;53.486;14.542;2023-08-06T06:51:29;1.33;;;1.02;;
54575;SDS011;40472;53.486;14.542;2023-08-06T06:53:56;0.73;;;0.38;;
54575;SDS011;40472;53.486;14.542;2023-08-06T06:56:22;1.00;;;0.65;;
54575;SDS011;40472;53.486;14.542;2023-08-06T06:58:48;0.90;;;0.68;;
54575;SDS011;40472;53.486;14.542;2023-08-06T07:01:14;2.60;;;0.80;;
54575;SDS011;40472;53.486;14.542;2023-08-06T07:03:39;1.30;;;0.43;;
54575;SDS011;40472;53.486;14.542;2023-08-06T07:06:06;0.28;;;0.28;;
54575;SDS011;40472;53.486;14.542;2023-08-06T07:08:32;0.28;;;0.22;;
54575;SDS011;40472;53.486;14.542;2023-08-06T07:11:01;0.93;;;0.63;;
54575;SDS011;40472;53.486;14.542;2023-08-06T07:13:27;0.73;;;0.50;;
54575;SDS011;40472;53.486;14.542;2023-08-06T07:15:54;0.80;;;0.60;;
54575;SDS011;40472;53.486;14.542;2023-08-06T07:18:20;1.45;;;0.90;;
54575;SDS011;40472;53.486;14.542;2023-08-06T07:20:49;0.90;;;0.80;;
54575;SDS011;40472;53.486;14.542;2023-08-06T07:23:16;1.10;;;0.50;;
54575;SDS011;40472;53.486;14.542;2023-08-06T07:25:41;0.98;;;0.70;;
54575;SDS011;40472;53.486;14.542;2023-08-06T07:28:07;0.55;;;0.50;;
54575;SDS011;40472;53.486;14.542;2023-08-06T07:30:33;1.52;;;0.68;;
54575;SDS011;40472;53.486;14.542;2023-08-06T07:33:03;0.40;;;0.40;;
54575;SDS011;40472;53.486;14.542;2023-08-06T07:35:31;0.63;;;0.30;;
54575;SDS011;40472;53.486;14.542;2023-08-06T07:37:57;0.98;;;0.50;;
54575;SDS011;40472;53.486;14.542;2023-08-06T07:40:22;0.73;;;0.43;;
54575;SDS011;40472;53.486;14.542;2023-08-06T07:42:48;1.17;;;0.98;;
54575;SDS011;40472;53.486;14.542;2023-08-06T07:45:14;1.85;;;0.90;;
54575;SDS011;40472;53.486;14.542;2023-08-06T07:47:39;1.52;;;0.95;;
54575;SDS011;40472;53.486;14.542;2023-08-06T07:50:05;2.03;;;1.08;;
54575;SDS011;40472;53.486;14.542;2023-08-06T07:52:31;3.65;;;2.50;;
54575;SDS011;40472;53.486;14.542;2023-08-06T07:54:57;4.70;;;2.67;;
54575;SDS011;40472;53.486;14.542;2023-08-06T07:57:23;4.47;;;1.95;;
54575;SDS011;40472;53.486;14.542;2023-08-06T07:59:49;6.53;;;3.78;;
54575;SDS011;40472;53.486;14.542;2023-08-06T08:02:15;8.88;;;4.43;;
54575;SDS011;40472;53.486;14.542;2023-08-06T08:04:40;12.65;;;4.97;;
54575;SDS011;40472;53.486;14.542;2023-08-06T08:07:06;15.85;;;3.47;;
54575;SDS011;40472;53.486;14.542;2023-08-06T08:09:32;7.32;;;3.25;;
54575;SDS011;40472;53.486;14.542;2023-08-06T08:12:00;11.52;;;4.25;;
54575;SDS011;40472;53.486;14.542;2023-08-06T08:14:28;12.23;;;4.20;;
54575;SDS011;40472;53.486;14.542;2023-08-06T08:17:03;6.22;;;2.20;;
54575;SDS011;40472;53.486;14.542;2023-08-06T08:19:32;10.35;;;3.60;;
54575;SDS011;40472;53.486;14.542;2023-08-06T08:22:03;6.70;;;3.13;;
54575;SDS011;40472;53.486;14.542;2023-08-06T08:24:29;8.13;;;2.83;;
54575;SDS011;40472;53.486;14.542;2023-08-06T08:26:55;8.45;;;2.42;;
54575;SDS011;40472;53.486;14.542;2023-08-06T08:29:21;1.13;;;0.90;;
54575;SDS011;40472;53.486;14.542;2023-08-06T08:31:47;2.10;;;1.52;;
54575;SDS011;40472;53.486;14.542;2023-08-06T08:34:16;1.38;;;1.00;;
54575;SDS011;40472;53.486;14.542;2023-08-06T08:36:43;2.40;;;0.85;;
54575;SDS011;40472;53.486;14.542;2023-08-06T08:39:09;3.58;;;1.17;;
54575;SDS011;40472;53.486;14.542;2023-08-06T08:41:36;1.00;;;0.73;;
54575;SDS011;40472;53.486;14.542;2023-08-06T08:44:02;1.67;;;0.95;;
54575;SDS011;40472;53.486;14.542;2023-08-06T08:46:33;0.82;;;0.57;;
54575;SDS011;40472;53.486;14.542;2023-08-06T08:49:00;1.17;;;0.57;;
54575;SDS011;40472;53.486;14.542;2023-08-06T08:51:27;1.13;;;0.70;;
54575;SDS011;40472;53.486;14.542;2023-08-06T08:53:54;1.40;;;0.85;;
54575;SDS011;40472;53.486;14.542;2023-08-06T08:56:23;0.75;;;0.43;;
54575;SDS011;40472;53.486;14.542;2023-08-06T08:58:49;2.05;;;0.88;;
54575;SDS011;40472;53.486;14.542;2023-08-06T09:01:18;0.93;;;0.63;;
54575;SDS011;40472;53.486;14.542;2023-08-06T09:03:43;0.70;;;0.63;;
54575;SDS011;40472;53.486;14.542;2023-08-06T09:06:11;6.57;;;0.60;;
54575;SDS011;40472;53.486;14.542;2023-08-06T09:08:42;0.32;;;0.32;;
54575;SDS011;40472;53.486;14.542;2023-08-06T09:11:14;1.25;;;0.73;;
54575;SDS011;40472;53.486;14.542;2023-08-06T09:13:41;1.55;;;0.50;;
54575;SDS011;40472;53.486;14.542;2023-08-06T09:16:06;1.02;;;0.55;;
54575;SDS011;40472;53.486;14.542;2023-08-06T09:18:32;2.70;;;0.82;;
54575;SDS011;40472;53.486;14.542;2023-08-06T09:20:58;1.35;;;0.50;;
54575;SDS011;40472;53.486;14.542;2023-08-06T09:23:30;0.35;;;0.35;;
54575;SDS011;40472;53.486;14.542;2023-08-06T09:26:01;0.90;;;0.40;;
54575;SDS011;40472;53.486;14.542;2023-08-06T09:28:45;0.75;;;0.73;;
54575;SDS011;40472;53.486;14.542;2023-08-06T09:31:11;0.50;;;0.40;;
54575;SDS011;40472;53.486;14.542;2023-08-06T09:33:37;0.50;;;0.50;;
54575;SDS011;40472;53.486;14.542;2023-08-06T09:36:07;0.50;;;0.50;;
54575;SDS011;40472;53.486;14.542;2023-08-06T09:38:40;0.88;;;0.52;;
54575;SDS011;40472;53.486;14.542;2023-08-06T09:41:11;0.43;;;0.40;;
54575;SDS011;40472;53.486;14.542;2023-08-06T09:44:02;0.43;;;0.28;;
54575;SDS011;40472;53.486;14.542;2023-08-06T09:46:30;2.90;;;1.83;;
54575;SDS011;40472;53.486;14.542;2023-08-06T09:48:58;0.98;;;0.43;;
54575;SDS011;40472;53.486;14.542;2023-08-06T09:51:24;0.90;;;0.60;;
54575;SDS011;40472;53.486;14.542;2023-08-06T09:53:51;0.45;;;0.45;;
54575;SDS011;40472;53.486;14.542;2023-08-06T09:56:17;0.88;;;0.70;;
54575;SDS011;40472;53.486;14.542;2023-08-06T09:58:44;0.40;;;0.40;;
54575;SDS011;40472;53.486;14.542;2023-08-06T10:01:17;1.45;;;0.47;;
54575;SDS011;40472;53.486;14.542;2023-08-06T10:03:45;0.50;;;0.50;;
54575;SDS011;40472;53.486;14.542;2023-08-06T10:06:13;0.98;;;0.45;;
54575;SDS011;40472;53.486;14.542;2023-08-06T10:08:39;0.65;;;0.40;;
54575;SDS011;40472;53.486;14.542;2023-08-06T10:11:07;0.52;;;0.40;;
54575;SDS011;40472;53.486;14.542;2023-08-06T10:13:35;0.55;;;0.30;;
54575;SDS011;40472;53.486;14.542;2023-08-06T10:16:05;0.20;;;0.20;;
54575;SDS011;40472;53.486;14.542;2023-08-06T10:18:32;0.52;;;0.40;;
54575;SDS011;40472;53.486;14.542;2023-08-06T10:20:59;1.60;;;0.80;;
54575;SDS011;40472;53.486;14.542;2023-08-06T10:23:35;0.22;;;0.22;;
54575;SDS011;40472;53.486;14.542;2023-08-06T10:26:03;1.88;;;0.88;;
54575;SDS011;40472;53.486;14.542;2023-08-06T10:28:36;0.55;;;0.40;;
54575;SDS011;40472;53.486;14.542;2023-08-06T10:31:03;0.32;;;0.32;;
54575;SDS011;40472;53.486;14.542;2023-08-06T10:36:10;0.52;;;0.20;;
54575;SDS011;40472;53.486;14.542;2023-08-06T10:38:57;0.32;;;0.32;;
54575;SDS011;40472;53.486;14.542;2023-08-06T10:41:23;0.60;;;0.43;;
54575;SDS011;40472;53.486;14.542;2023-08-06T10:44:07;0.60;;;0.50;;
54575;SDS011;40472;53.486;14.542;2023-08-06T10:46:34;0.57;;;0.57;;
54575;SDS011;40472;53.486;14.542;2023-08-06T10:49:00;0.32;;;0.30;;
54575;SDS011;40472;53.486;14.542;2023-08-06T10:51:26;1.23;;;0.60;;
54575;SDS011;40472;53.486;14.542;2023-08-06T10:53:52;0.77;;;0.30;;
54575;SDS011;40472;53.486;14.542;2023-08-06T10:56:19;0.43;;;0.43;;
54575;SDS011;40472;53.486;14.542;2023-08-06T10:58:51;1.20;;;0.60;;
54575;SDS011;40472;53.486;14.542;2023-08-06T11:01:24;0.80;;;0.73;;
54575;SDS011;40472;53.486;14.542;2023-08-06T11:03:54;0.35;;;0.35;;
54575;SDS011;40472;53.486;14.542;2023-08-06T11:06:20;0.40;;;0.40;;
54575;SDS011;40472;53.486;14.542;2023-08-06T11:08:48;0.85;;;0.80;;
54575;SDS011;40472;53.486;14.542;2023-08-06T11:11:18;1.25;;;0.73;;
54575;SDS011;40472;53.486;14.542;2023-08-06T11:13:47;1.52;;;0.88;;
54575;SDS011;40472;53.486;14.542;2023-08-06T11:16:14;2.17;;;1.25;;
54575;SDS011;40472;53.486;14.542;2023-08-06T11:18:42;1.60;;;1.05;;
54575;SDS011;40472;53.486;14.542;2023-08-06T11:21:08;1.95;;;1.05;;
54575;SDS011;40472;53.486;14.542;2023-08-06T11:23:34;2.33;;;1.83;;
54575;SDS011;40472;53.486;14.542;2023-08-06T11:26:01;10.88;;;4.30;;
54575;SDS011;40472;53.486;14.542;2023-08-06T11:28:27;9.88;;;4.47;;
54575;SDS011;40472;53.486;14.542;2023-08-06T11:30:53;5.18;;;3.47;;
54575;SDS011;40472;53.486;14.542;2023-08-06T11:33:23;7.93;;;2.63;;
54575;SDS011;40472;53.486;14.542;2023-08-06T11:35:52;1.05;;;0.90;;
54575;SDS011;40472;53.486;14.542;2023-08-06T11:38:21;1.42;;;0.95;;
54575;SDS011;40472;53.486;14.542;2023-08-06T11:40:50;1.05;;;0.70;;
54575;SDS011;40472;53.486;14.542;2023-08-06T11:43:17;0.45;;;0.40;;
54575;SDS011;40472;53.486;14.542;2023-08-06T11:45:45;1.70;;;0.70;;
54575;SDS011;40472;53.486;14.542;2023-08-06T11:48:11;3.67;;;0.68;;
54575;SDS011;40472;53.486;14.542;2023-08-06T11:50:37;0.28;;;0.28;;
54575;SDS011;40472;53.486;14.542;2023-08-06T11:53:06;0.70;;;0.45;;
54575;SDS011;40472;53.486;14.542;2023-08-06T11:55:32;1.65;;;1.05;;
54575;SDS011;40472;53.486;14.542;2023-08-06T11:57:59;1.25;;;0.95;;
54575;SDS011;40472;53.486;14.542;2023-08-06T12:00:29;1.67;;;0.85;;
54575;SDS011;40472;53.486;14.542;2023-08-06T12:02:55;2.70;;;1.48;;
54575;SDS011;40472;53.486;14.542;2023-08-06T12:05:22;2.78;;;1.48;;
54575;SDS011;40472;53.486;14.542;2023-08-06T12:07:50;7.15;;;2.50;;
54575;SDS011;40472;53.486;14.542;2023-08-06T12:10:21;3.88;;;2.60;;
54575;SDS011;40472;53.486;14.542;2023-08-06T12:12:49;3.05;;;1.67;;
54575;SDS011;40472;53.486;14.542;2023-08-06T12:15:15;3.30;;;1.58;;
54575;SDS011;40472;53.486;14.542;2023-08-06T12:17:41;6.70;;;1.77;;
54575;SDS011;40472;53.486;14.542;2023-08-06T12:20:07;3.05;;;1.10;;
54575;SDS011;40472;53.486;14.542;2023-08-06T12:22:34;3.40;;;0.80;;
54575;SDS011;40472;53.486;14.542;2023-08-06T12:25:01;0.65;;;0.65;;
54575;SDS011;40472;53.486;14.542;2023-08-06T12:27:37;1.63;;;0.98;;
54575;SDS011;40472;53.486;14.542;2023-08-06T12:30:04;1.02;;;0.88;;
54575;SDS011;40472;53.486;14.542;2023-08-06T12:32:31;4.65;;;1.30;;
54575;SDS011;40472;53.486;14.542;2023-08-06T12:34:56;1.92;;;1.48;;
54575;SDS011;40472;53.486;14.542;2023-08-06T12:37:23;1.17;;;0.90;;
54575;SDS011;40472;53.486;14.542;2023-08-06T12:39:49;2.22;;;1.48;;
54575;SDS011;40472;53.486;14.542;2023-08-06T12:42:15;1.13;;;0.90;;
54575;SDS011;40472;53.486;14.542;2023-08-06T12:44:41;0.85;;;0.57;;
54575;SDS011;40472;53.486;14.542;2023-08-06T12:47:07;2.17;;;0.77;;
54575;SDS011;40472;53.486;14.542;2023-08-06T12:49:32;0.95;;;0.57;;
54575;SDS011;40472;53.486;14.542;2023-08-06T12:51:58;1.45;;;0.95;;
54575;SDS011;40472;53.486;14.542;2023-08-06T12:54:24;0.65;;;0.55;;
54575;SDS011;40472;53.486;14.542;2023-08-06T12:56:51;1.17;;;0.52;;
54575;SDS011;40472;53.486;14.542;2023-08-06T12:59:17;0.75;;;0.45;;
54575;SDS011;40472;53.486;14.542;2023-08-06T13:01:43;1.33;;;0.68;;
54575;SDS011;40472;53.486;14.542;2023-08-06T13:04:09;1.50;;;0.70;;
54575;SDS011;40472;53.486;14.542;2023-08-06T13:06:36;1.02;;;0.35;;
54575;SDS011;40472;53.486;14.542;2023-08-06T13:09:11;3.92;;;0.80;;
54575;SDS011;40472;53.486;14.542;2023-08-06T13:11:38;0.27;;;0.27;;
54575;SDS011;40472;53.486;14.542;2023-08-06T13:14:05;1.77;;;0.77;;
54575;SDS011;40472;53.486;14.542;2023-08-06T13:16:33;1.05;;;0.77;;
54575;SDS011;40472;53.486;14.542;2023-08-06T13:18:59;0.82;;;0.25;;
54575;SDS011;40472;53.486;14.542;2023-08-06T13:21:31;0.38;;;0.32;;
54575;SDS011;40472;53.486;14.542;2023-08-06T13:24:03;3.15;;;1.27;;
54575;SDS011;40472;53.486;14.542;2023-08-06T13:26:29;7.00;;;0.45;;
54575;SDS011;40472;53.486;14.542;2023-08-06T13:28:58;1.30;;;0.50;;
54575;SDS011;40472;53.486;14.542;2023-08-06T13:31:25;0.38;;;0.38;;
54575;SDS011;40472;53.486;14.542;2023-08-06T13:33:51;0.82;;;0.68;;
54575;SDS011;40472;53.486;14.542;2023-08-06T13:36:19;3.05;;;0.82;;
54575;SDS011;40472;53.486;14.542;2023-08-06T13:38:44;0.55;;;0.52;;
54575;SDS011;40472;53.486;14.542;2023-08-06T13:41:10;0.50;;;0.47;;
54575;SDS011;40472;53.486;14.542;2023-08-06T13:43:36;0.50;;;0.32;;
54575;SDS011;40472;53.486;14.542;2023-08-06T13:46:02;0.75;;;0.38;;
54575;SDS011;40472;53.486;14.542;2023-08-06T13:48:27;2.20;;;0.50;;
54575;SDS011;40472;53.486;14.542;2023-08-06T13:50:53;0.30;;;0.30;;
54575;SDS011;40472;53.486;14.542;2023-08-06T13:53:19;0.45;;;0.45;;
54575;SDS011;40472;53.486;14.542;2023-08-06T13:55:46;1.55;;;0.75;;
54575;SDS011;40472;53.486;14.542;2023-08-06T13:58:12;2.42;;;0.60;;
54575;SDS011;40472;53.486;14.542;2023-08-06T14:00:38;1.10;;;0.60;;
54575;SDS011;40472;53.486;14.542;2023-08-06T14:03:04;3.00;;;1.02;;
54575;SDS011;40472;53.486;14.542;2023-08-06T14:05:30;0.52;;;0.40;;
54575;SDS011;40472;53.486;14.542;2023-08-06T14:07:58;1.30;;;0.75;;
54575;SDS011;40472;53.486;14.542;2023-08-06T14:10:24;0.45;;;0.45;;
54575;SDS011;40472;53.486;14.542;2023-08-06T14:12:50;0.50;;;0.50;;
54575;SDS011;40472;53.486;14.542;2023-08-06T14:15:15;0.20;;;0.20;;
54575;SDS011;40472;53.486;14.542;2023-08-06T14:17:41;0.65;;;0.55;;
54575;SDS011;40472;53.486;14.542;2023-08-06T14:20:07;0.55;;;0.55;;
54575;SDS011;40472;53.486;14.542;2023-08-06T14:22:36;0.93;;;0.65;;
54575;SDS011;40472;53.486;14.542;2023-08-06T14:25:02;1.45;;;0.50;;
54575;SDS011;40472;53.486;14.542;2023-08-06T14:27:28;1.38;;;0.77;;
54575;SDS011;40472;53.486;14.542;2023-08-06T14:29:54;2.85;;;0.85;;
54575;SDS011;40472;53.486;14.542;2023-08-06T14:32:20;1.30;;;0.43;;
54575;SDS011;40472;53.486;14.542;2023-08-06T14:34:46;1.40;;;0.43;;
54575;SDS011;40472;53.486;14.542;2023-08-06T14:37:12;0.45;;;0.45;;
54575;SDS011;40472;53.486;14.542;2023-08-06T14:39:38;1.63;;;0.50;;
54575;SDS011;40472;53.486;14.542;2023-08-06T14:42:04;0.03;;;0.03;;
54575;SDS011;40472;53.486;14.542;2023-08-06T14:44:30;0.77;;;0.65;;
54575;SDS011;40472;53.486;14.542;2023-08-06T14:46:56;0.43;;;0.40;;
54575;SDS011;40472;53.486;14.542;2023-08-06T14:49:22;1.15;;;0.70;;